Time;durP1;ratioP1;P1;durP2;ratioP2;P2;SDS_P1;SDS_P2;PMS_P1;PMS_P2;Temp;Humidity;BMP_temperature;BMP_pressure;BME280_temperature;BME280_humidity;BME280_pressure;Samples;Min_cycle;Max_cycle;Signal;HPM_P1;HPM_P2
2024/01/10 00:00:38;;;;;;;22.95;12.70;;;-2.60;99.90;;;;;;5032411;28;20033;-67
2024/01/10 00:03:03;;;;;;;23.80;12.68;;;-2.60;99.90;;;;;;5038211;28;20048;-67
2024/01/10 00:05:29;;;;;;;24.38;13.23;;;-2.60;99.90;;;;;;5032593;28;20542;-67
2024/01/10 00:07:54;;;;;;;21.40;12.48;;;-2.60;99.90;;;;;;5037471;28;20124;-67
2024/01/10 00:10:21;;;;;;;22.42;12.13;;;-2.60;99.90;;;;;;5036071;28;20104;-67
2024/01/10 00:12:47;;;;;;;25.17;12.95;;;-2.60;99.90;;;;;;5024765;28;20081;-67
2024/01/10 00:15:13;;;;;;;24.35;12.75;;;-2.60;99.90;;;;;;5030008;28;20064;-67
2024/01/10 00:17:40;;;;;;;21.30;11.77;;;-2.60;99.90;;;;;;5030028;28;20071;-67
2024/01/10 00:20:07;;;;;;;23.10;12.50;;;-3.30;99.90;;;;;;5040560;28;20083;-67
2024/01/10 00:22:32;;;;;;;29.85;12.73;;;-2.60;99.90;;;;;;5033797;28;20075;-67
2024/01/10 00:24:58;;;;;;;22.98;12.48;;;-2.60;99.90;;;;;;5026049;28;20077;-67
2024/01/10 00:27:24;;;;;;;22.48;11.80;;;-2.60;99.90;;;;;;5053296;28;20103;-67
2024/01/10 00:29:51;;;;;;;24.10;12.95;;;-2.60;99.90;;;;;;5028943;28;20041;-67
2024/01/10 00:32:17;;;;;;;20.67;11.82;;;-2.60;99.90;;;;;;5036911;28;20045;-67
2024/01/10 00:34:42;;;;;;;22.80;12.07;;;-2.60;99.90;;;;;;5029569;28;20163;-67
2024/01/10 00:37:08;;;;;;;23.80;12.27;;;-2.60;99.90;;;;;;5029014;28;20087;-67
2024/01/10 00:39:34;;;;;;;25.30;12.18;;;-2.60;99.90;;;;;;5030342;28;20033;-67
2024/01/10 00:41:59;;;;;;;21.02;12.10;;;-2.60;99.90;;;;;;5029944;28;20128;-67
2024/01/10 00:44:25;;;;;;;19.45;11.32;;;-2.60;99.90;;;;;;5028367;28;20464;-67
2024/01/10 00:46:50;;;;;;;20.80;11.88;;;-2.70;99.90;;;;;;5028787;28;20497;-67
2024/01/10 00:49:16;;;;;;;22.25;12.10;;;-2.60;99.90;;;;;;5028520;28;20089;-67
2024/01/10 00:51:41;;;;;;;21.83;11.95;;;-2.60;99.90;;;;;;5033373;28;20127;-67
2024/01/10 00:54:07;;;;;;;23.92;12.30;;;-2.70;99.90;;;;;;5035836;28;20395;-67
2024/01/10 00:56:32;;;;;;;22.98;11.55;;;-2.70;99.90;;;;;;5033603;28;20033;-67
2024/01/10 00:58:58;;;;;;;23.27;12.65;;;-2.70;99.90;;;;;;5039398;28;20114;-67
2024/01/10 01:01:24;;;;;;;21.17;11.90;;;-2.70;99.90;;;;;;5029595;28;20499;-67
2024/01/10 01:03:50;;;;;;;22.50;12.18;;;-2.70;99.90;;;;;;5028400;28;20040;-67
2024/01/10 01:06:15;;;;;;;25.80;12.60;;;-2.70;99.90;;;;;;5028268;28;20041;-67
2024/01/10 01:08:41;;;;;;;25.42;11.65;;;-2.70;99.90;;;;;;5029934;28;20108;-67
2024/01/10 01:11:07;;;;;;;24.83;13.10;;;-4.40;99.90;;;;;;5029310;28;20492;-67
2024/01/10 01:13:32;;;;;;;22.67;12.18;;;-2.80;99.90;;;;;;5034457;28;20132;-67
2024/01/10 01:15:58;;;;;;;25.35;11.68;;;-2.70;99.90;;;;;;5028714;28;20041;-67
2024/01/10 01:18:23;;;;;;;25.42;12.93;;;-2.70;99.90;;;;;;5028340;28;20445;-67
2024/01/10 01:20:50;;;;;;;20.15;11.57;;;-2.80;99.90;;;;;;5029638;28;20091;-67
2024/01/10 01:23:16;;;;;;;22.83;12.68;;;-2.80;99.90;;;;;;5028418;28;20117;-67
2024/01/10 01:25:41;;;;;;;24.40;12.00;;;-1.80;99.90;;;;;;5030316;28;20064;-67
2024/01/10 01:28:08;;;;;;;24.42;12.13;;;-2.80;99.90;;;;;;5034089;28;20057;-67
2024/01/10 01:30:33;;;;;;;21.30;12.60;;;-2.80;99.90;;;;;;5028457;28;20048;-67
2024/01/10 01:32:59;;;;;;;22.38;12.60;;;-2.80;99.90;;;;;;5029222;28;20120;-67
2024/01/10 01:35:24;;;;;;;23.70;12.23;;;-2.80;99.90;;;;;;5041343;28;20129;-67
2024/01/10 01:37:51;;;;;;;25.98;12.45;;;-2.80;99.90;;;;;;5029259;28;20037;-67
2024/01/10 01:40:18;;;;;;;20.88;11.48;;;-2.80;99.90;;;;;;5036634;28;20072;-67
2024/01/10 01:42:45;;;;;;;24.95;13.15;;;-2.80;99.90;;;;;;5037701;28;20037;-67
2024/01/10 01:45:12;;;;;;;23.20;12.43;;;-2.80;99.90;;;;;;5034304;28;20084;-67
2024/01/10 01:47:39;;;;;;;25.42;12.55;;;-2.80;99.90;;;;;;5028184;28;20473;-67
2024/01/10 01:50:06;;;;;;;24.58;12.43;;;-2.80;99.90;;;;;;5029688;28;20078;-67
2024/01/10 01:52:34;;;;;;;24.52;12.57;;;-2.80;99.90;;;;;;5024696;28;20191;-67
2024/01/10 01:55:00;;;;;;;22.48;12.25;;;-2.80;99.90;;;;;;5034745;28;20120;-67
2024/01/10 01:57:26;;;;;;;28.17;12.77;;;-2.80;99.90;;;;;;5045924;28;20086;-67
2024/01/10 01:59:52;;;;;;;28.35;12.93;;;-2.80;99.90;;;;;;5032847;28;20037;-67
2024/01/10 02:02:18;;;;;;;22.75;12.32;;;-2.90;99.90;;;;;;5031859;28;20167;-67
2024/01/10 02:04:46;;;;;;;25.88;12.60;;;-2.80;99.90;;;;;;5037563;28;20502;-67
2024/01/10 02:07:12;;;;;;;26.55;12.60;;;-2.90;99.90;;;;;;5032792;28;20483;-67
2024/01/10 02:09:38;;;;;;;26.23;11.60;;;-2.90;99.90;;;;;;5033822;28;20041;-67
2024/01/10 02:12:04;;;;;;;23.25;12.05;;;-2.90;99.90;;;;;;5032824;28;20030;-67
2024/01/10 02:14:30;;;;;;;24.00;12.95;;;-2.90;99.90;;;;;;5038255;28;20420;-67
2024/01/10 02:16:56;;;;;;;20.88;11.65;;;-2.90;99.90;;;;;;5032430;28;20029;-67
2024/01/10 02:19:23;;;;;;;23.02;12.55;;;-2.90;99.90;;;;;;5031979;28;20574;-67
2024/01/10 02:21:49;;;;;;;22.95;11.80;;;-2.90;99.90;;;;;;5038368;28;20119;-67
2024/01/10 02:24:14;;;;;;;24.83;12.77;;;-1.10;99.90;;;;;;5034360;28;20159;-67
2024/01/10 02:26:40;;;;;;;24.05;12.30;;;-3.40;99.90;;;;;;5032243;28;20120;-67
2024/01/10 02:29:06;;;;;;;23.08;12.25;;;-3.00;99.90;;;;;;5032360;28;20390;-67
2024/01/10 02:31:32;;;;;;;23.92;11.45;;;-2.90;99.90;;;;;;5031873;28;20416;-67
2024/01/10 02:33:57;;;;;;;22.33;11.77;;;-2.90;99.90;;;;;;5035050;28;20061;-67
2024/01/10 02:36:23;;;;;;;21.08;11.57;;;-2.90;99.90;;;;;;5035834;28;20561;-67
2024/01/10 02:38:50;;;;;;;21.52;11.73;;;-2.90;99.90;;;;;;5038062;28;20407;-67
2024/01/10 02:41:15;;;;;;;26.33;13.13;;;-3.00;99.90;;;;;;5036076;28;20099;-67
2024/01/10 02:43:41;;;;;;;23.25;12.48;;;-3.00;99.90;;;;;;5031878;28;20041;-67
2024/01/10 02:46:06;;;;;;;24.55;12.90;;;-2.90;99.90;;;;;;5039802;28;20056;-67
2024/01/10 02:48:32;;;;;;;21.38;11.13;;;-3.00;99.90;;;;;;5031776;28;20041;-67
2024/01/10 02:50:57;;;;;;;23.98;12.18;;;-3.00;99.90;;;;;;5032168;28;20044;-67
2024/01/10 02:53:23;;;;;;;22.95;11.55;;;-3.00;99.90;;;;;;5035354;28;20038;-67
2024/01/10 02:55:49;;;;;;;24.13;12.25;;;-3.00;99.90;;;;;;5031880;28;20041;-67
2024/01/10 02:58:15;;;;;;;22.52;11.90;;;-3.00;99.90;;;;;;5030082;28;20045;-67
2024/01/10 03:00:41;;;;;;;21.05;11.63;;;-3.00;99.90;;;;;;5031241;28;20408;-67
2024/01/10 03:03:06;;;;;;;22.20;11.73;;;-3.00;99.90;;;;;;5031704;28;20045;-67
2024/01/10 03:05:32;;;;;;;22.13;11.85;;;-3.00;99.90;;;;;;5031453;28;20037;-67
2024/01/10 03:07:57;;;;;;;24.63;11.88;;;-3.00;99.90;;;;;;5035308;28;20117;-66
2024/01/10 03:10:23;;;;;;;22.15;11.15;;;-3.00;99.90;;;;;;5038488;28;20045;-67
2024/01/10 03:12:48;;;;;;;21.60;10.68;;;-3.00;99.90;;;;;;5031322;28;20512;-67
2024/01/10 03:15:14;;;;;;;22.27;12.02;;;-3.00;99.90;;;;;;5034536;28;20037;-67
2024/01/10 03:17:40;;;;;;;21.23;11.23;;;-3.00;99.90;;;;;;5031419;28;20033;-67
2024/01/10 03:20:08;;;;;;;20.95;10.70;;;-3.00;99.90;;;;;;5031379;28;20065;-67
2024/01/10 03:22:34;;;;;;;20.42;10.40;;;-3.00;99.90;;;;;;5038167;28;20094;-67
2024/01/10 03:25:00;;;;;;;22.00;10.43;;;-3.00;99.90;;;;;;5039409;28;20439;-67
2024/01/10 03:27:26;;;;;;;21.02;11.18;;;-3.00;99.90;;;;;;5031190;28;20044;-67
2024/01/10 03:29:51;;;;;;;19.88;11.05;;;-1.30;99.90;;;;;;5033931;28;20059;-67
2024/01/10 03:32:17;;;;;;;20.33;9.82;;;-3.00;99.90;;;;;;5036173;28;20044;-67
2024/01/10 03:34:43;;;;;;;20.55;10.15;;;-3.00;99.90;;;;;;5015156;28;20048;-67
2024/01/10 03:37:08;;;;;;;19.88;10.32;;;-3.10;99.90;;;;;;5033300;28;20113;-67
2024/01/10 03:39:34;;;;;;;18.77;10.38;;;-3.00;99.90;;;;;;5031063;28;20040;-67
2024/01/10 03:41:59;;;;;;;19.80;10.38;;;-3.00;99.90;;;;;;5029801;28;20045;-67
2024/01/10 03:44:26;;;;;;;22.52;10.35;;;-3.00;99.90;;;;;;5032889;28;20515;-67
2024/01/10 03:46:52;;;;;;;19.90;11.43;;;-3.00;99.90;;;;;;5030889;28;20048;-67
2024/01/10 03:49:17;;;;;;;22.27;11.23;;;-3.00;99.90;;;;;;5032981;28;20038;-67
2024/01/10 03:51:43;;;;;;;20.38;10.68;;;-3.00;99.90;;;;;;5033613;28;20099;-67
2024/01/10 03:54:09;;;;;;;26.10;12.05;;;-3.00;99.90;;;;;;5032635;28;20496;-67
2024/01/10 03:56:35;;;;;;;22.17;10.27;;;-3.00;99.90;;;;;;5036764;28;20041;-67
2024/01/10 03:59:01;;;;;;;18.17;10.10;;;-3.00;99.90;;;;;;5030457;28;20033;-67
2024/01/10 04:01:27;;;;;;;21.33;11.20;;;-3.00;99.90;;;;;;5038077;28;20040;-67
2024/01/10 04:03:52;;;;;;;21.55;11.38;;;-3.00;99.90;;;;;;5030515;28;20030;-67
2024/01/10 04:06:18;;;;;;;25.05;11.98;;;-3.00;99.90;;;;;;5031495;28;20041;-67
2024/01/10 04:08:43;;;;;;;22.85;11.05;;;-3.00;99.90;;;;;;5030009;28;20033;-67
2024/01/10 04:11:09;;;;;;;21.23;10.98;;;-3.10;99.90;;;;;;5028419;28;20037;-67
2024/01/10 04:13:35;;;;;;;21.50;10.20;;;-3.10;99.90;;;;;;5031089;28;20116;-67
2024/01/10 04:16:00;;;;;;;21.60;11.50;;;-3.10;99.90;;;;;;5031330;28;20041;-67
2024/01/10 04:18:26;;;;;;;20.65;11.07;;;-3.10;99.90;;;;;;5028632;28;20037;-67
2024/01/10 04:20:51;;;;;;;19.70;10.80;;;-3.10;99.90;;;;;;5030236;28;20484;-67
2024/01/10 04:23:17;;;;;;;22.75;11.50;;;-2.70;99.90;;;;;;5030120;28;20041;-67
2024/01/10 04:25:43;;;;;;;22.27;10.77;;;-3.10;99.90;;;;;;5030014;28;20041;-67
2024/01/10 04:28:08;;;;;;;20.30;10.90;;;-3.10;99.90;;;;;;5033002;28;20029;-67
2024/01/10 04:30:34;;;;;;;20.60;11.15;;;-3.10;99.90;;;;;;5030371;28;20155;-67
2024/01/10 04:33:00;;;;;;;23.77;11.45;;;-3.00;99.90;;;;;;5029226;28;20045;-67
2024/01/10 04:35:25;;;;;;;19.48;10.90;;;-3.10;99.90;;;;;;5030008;28;20397;-67
2024/01/10 04:37:51;;;;;;;19.83;10.27;;;-3.10;99.90;;;;;;5029679;28;20047;-67
2024/01/10 04:40:17;;;;;;;22.05;10.55;;;-3.10;99.90;;;;;;5031415;28;20034;-67
2024/01/10 04:42:43;;;;;;;20.38;10.10;;;-3.10;99.90;;;;;;5027820;28;20073;-67
2024/01/10 04:45:09;;;;;;;18.20;10.30;;;-3.10;99.90;;;;;;5029113;28;20110;-67
2024/01/10 04:47:34;;;;;;;20.70;10.40;;;-3.10;99.90;;;;;;5041524;28;20130;-67
2024/01/10 04:50:00;;;;;;;19.52;10.63;;;-3.10;99.90;;;;;;5036640;28;20033;-67
2024/01/10 04:52:25;;;;;;;21.58;10.75;;;-3.10;99.90;;;;;;5032628;28;20041;-67
2024/01/10 04:54:51;;;;;;;21.25;10.68;;;-3.10;99.90;;;;;;5030406;28;20033;-67
2024/01/10 04:57:16;;;;;;;18.85;9.93;;;-3.10;99.90;;;;;;5028725;28;20041;-67
2024/01/10 04:59:42;;;;;;;19.48;10.43;;;-3.10;99.90;;;;;;5027618;28;20045;-67
2024/01/10 05:02:08;;;;;;;19.27;10.38;;;-3.10;99.90;;;;;;5029648;28;20034;-67
2024/01/10 05:04:33;;;;;;;18.77;10.57;;;-3.10;99.90;;;;;;5022060;28;20040;-67
2024/01/10 05:06:59;;;;;;;19.42;10.85;;;-3.10;99.90;;;;;;5030073;28;20041;-67
2024/01/10 05:09:24;;;;;;;21.52;10.40;;;-3.10;99.90;;;;;;5029914;28;20045;-67
2024/01/10 05:11:51;;;;;;;21.33;10.77;;;-3.10;99.90;;;;;;5027764;28;20528;-66
2024/01/10 05:14:19;;;;;;;23.67;11.27;;;-3.10;99.90;;;;;;5029646;28;20079;-67
2024/01/10 05:16:45;;;;;;;22.83;11.55;;;-3.10;99.90;;;;;;5030703;28;20124;-67
2024/01/10 05:19:11;;;;;;;22.00;10.90;;;-3.10;99.90;;;;;;5025629;28;20040;-67
2024/01/10 05:21:36;;;;;;;18.20;9.93;;;-3.10;99.90;;;;;;5030847;28;20116;-66
2024/01/10 05:24:03;;;;;;;17.83;9.93;;;-3.10;99.90;;;;;;5032773;28;20048;-67
2024/01/10 05:26:29;;;;;;;19.75;10.25;;;-3.20;99.90;;;;;;5047164;28;20091;-67
2024/01/10 05:28:54;;;;;;;20.65;10.95;;;-3.10;99.90;;;;;;5033164;28;20041;-66
2024/01/10 05:31:20;;;;;;;20.73;10.68;;;-3.10;99.90;;;;;;5032651;28;20469;-67
2024/01/10 05:33:45;;;;;;;19.05;10.13;;;-3.20;99.90;;;;;;5033442;28;20033;-68
2024/01/10 05:36:11;;;;;;;19.38;10.30;;;-3.10;99.90;;;;;;5032199;28;20183;-67
2024/01/10 05:38:37;;;;;;;19.45;10.70;;;-3.20;99.90;;;;;;5033330;28;20112;-67
2024/01/10 05:41:03;;;;;;;19.73;11.07;;;-3.10;99.90;;;;;;5035599;28;20492;-66
2024/01/10 05:43:28;;;;;;;19.73;11.38;;;-3.10;99.90;;;;;;5029368;28;20038;-67
2024/01/10 05:45:54;;;;;;;20.33;11.15;;;-3.20;99.90;;;;;;5040017;28;20044;-68
2024/01/10 05:48:19;;;;;;;19.67;10.77;;;-3.20;99.90;;;;;;5041647;28;20048;-67
2024/01/10 05:50:45;;;;;;;24.13;12.18;;;-3.20;99.90;;;;;;5035817;28;20111;-67
2024/01/10 05:53:12;;;;;;;22.65;11.57;;;-3.20;99.90;;;;;;5033504;28;20040;-68
2024/01/10 05:55:38;;;;;;;22.13;11.20;;;-3.20;99.90;;;;;;5044335;28;20116;-67
2024/01/10 05:58:04;;;;;;;19.88;10.80;;;-3.20;99.90;;;;;;5032975;28;20108;-67
2024/01/10 06:00:30;;;;;;;22.88;10.75;;;-3.20;99.90;;;;;;5032242;28;20044;-67
2024/01/10 06:02:55;;;;;;;22.65;11.02;;;-3.20;99.90;;;;;;5037650;28;20033;-66
2024/01/10 06:05:21;;;;;;;25.33;12.88;;;-3.10;99.90;;;;;;5041653;28;20628;-68
2024/01/10 06:07:47;;;;;;;24.17;12.52;;;-3.20;99.90;;;;;;5032809;28;20119;-67
2024/01/10 06:10:12;;;;;;;24.17;12.25;;;-3.20;99.90;;;;;;5032940;28;20108;-67
2024/01/10 06:12:38;;;;;;;22.05;11.65;;;-3.20;99.90;;;;;;5032512;28;20033;-68
2024/01/10 06:15:04;;;;;;;22.48;12.43;;;-3.20;99.90;;;;;;5032368;28;20065;-67
2024/01/10 06:17:31;;;;;;;23.77;12.65;;;-3.20;99.90;;;;;;5032878;28;20041;-67
2024/01/10 06:19:58;;;;;;;24.27;11.77;;;-3.20;99.90;;;;;;5034965;28;20064;-67
2024/01/10 06:22:25;;;;;;;21.92;11.52;;;-3.20;99.90;;;;;;5032277;28;20077;-67
2024/01/10 06:24:50;;;;;;;21.63;11.95;;;-3.20;99.90;;;;;;5034951;28;20030;-67
2024/01/10 06:27:18;;;;;;;23.85;12.80;;;-3.20;99.90;;;;;;5041072;28;20488;-67
2024/01/10 06:29:44;;;;;;;23.75;12.55;;;-3.20;99.90;;;;;;5032059;28;20053;-67
2024/01/10 06:32:11;;;;;;;26.08;12.93;;;-3.20;99.90;;;;;;5031946;28;20030;-67
2024/01/10 06:34:36;;;;;;;25.13;13.05;;;-3.20;99.90;;;;;;5031801;28;20397;-66
2024/01/10 06:37:02;;;;;;;25.23;13.10;;;-3.20;99.90;;;;;;5031211;28;20033;-68
2024/01/10 06:39:27;;;;;;;24.52;13.18;;;-3.20;99.90;;;;;;5034264;28;20385;-67
2024/01/10 06:41:53;;;;;;;26.45;13.23;;;-3.20;99.90;;;;;;5031744;28;20540;-67
2024/01/10 06:44:19;;;;;;;25.02;12.93;;;-3.20;99.90;;;;;;5038239;28;20037;-66
2024/01/10 06:46:45;;;;;;;26.48;13.75;;;-3.20;99.90;;;;;;5036706;28;20045;-67
2024/01/10 06:49:11;;;;;;;26.30;13.43;;;-3.20;99.90;;;;;;5029621;28;20044;-68
2024/01/10 06:51:37;;;;;;;23.25;11.95;;;-3.20;99.90;;;;;;5038508;28;20033;-67
2024/01/10 06:54:03;;;;;;;25.52;12.98;;;-3.70;99.90;;;;;;5030407;28;20041;-65
2024/01/10 06:56:33;;;;;;;27.48;13.15;;;-3.30;99.90;;;;;;5027696;28;20122;-67
2024/01/10 06:59:00;;;;;;;25.40;13.25;;;-3.30;99.90;;;;;;5037999;28;20592;-67
2024/01/10 07:01:26;;;;;;;25.08;12.65;;;-3.20;99.90;;;;;;5030627;28;20135;-67
2024/01/10 07:03:55;;;;;;;25.10;13.18;;;-3.30;99.90;;;;;;5035149;28;20037;-68
2024/01/10 07:06:21;;;;;;;28.85;13.68;;;-3.30;99.90;;;;;;5032209;28;20030;-68
2024/01/10 07:08:49;;;;;;;24.77;13.18;;;-3.30;99.90;;;;;;5030371;28;20045;-67
2024/01/10 07:11:14;;;;;;;24.73;12.98;;;-3.30;99.90;;;;;;5028897;28;20095;-67
2024/01/10 07:13:40;;;;;;;26.40;13.60;;;-3.30;99.90;;;;;;5030165;28;20152;-67
2024/01/10 07:16:06;;;;;;;26.10;12.40;;;-3.30;99.90;;;;;;5034515;28;20128;-67
2024/01/10 07:18:32;;;;;;;24.25;12.77;;;-3.30;99.90;;;;;;5035451;28;20033;-67
2024/01/10 07:20:58;;;;;;;25.98;13.10;;;-3.80;99.90;;;;;;5028259;28;20033;-67
2024/01/10 07:23:24;;;;;;;23.63;13.15;;;-3.30;99.90;;;;;;5024148;28;20045;-66
2024/01/10 07:25:49;;;;;;;25.42;13.18;;;-3.30;99.90;;;;;;5030614;28;20040;-67
2024/01/10 07:28:16;;;;;;;30.67;16.38;;;-3.30;99.90;;;;;;5036540;28;20033;-67
2024/01/10 07:30:42;;;;;;;27.67;14.02;;;-3.30;99.90;;;;;;5036108;28;20426;-67
2024/01/10 07:33:07;;;;;;;25.23;13.25;;;-3.30;99.90;;;;;;5029418;28;20041;-67
2024/01/10 07:35:33;;;;;;;25.90;13.98;;;-3.30;99.90;;;;;;5025325;28;20033;-67
2024/01/10 07:37:59;;;;;;;25.52;13.48;;;-3.30;99.90;;;;;;5030268;28;20069;-66
2024/01/10 07:40:24;;;;;;;27.33;15.00;;;-3.30;99.90;;;;;;5032498;28;20103;-67
2024/01/10 07:42:50;;;;;;;32.65;16.67;;;-3.30;99.90;;;;;;5029063;28;20045;-67
2024/01/10 07:45:16;;;;;;;30.15;15.30;;;-3.30;99.90;;;;;;5028617;28;20412;-67
2024/01/10 07:47:41;;;;;;;26.35;14.88;;;-3.30;99.90;;;;;;5029018;28;20041;-67
2024/01/10 07:50:08;;;;;;;25.55;13.32;;;-3.30;99.90;;;;;;5029788;28;20037;-68
2024/01/10 07:52:34;;;;;;;23.38;13.20;;;-3.30;99.90;;;;;;5032590;28;20046;-67
2024/01/10 07:55:00;;;;;;;27.65;14.20;;;-3.30;99.90;;;;;;5029281;28;20039;-67
2024/01/10 07:57:29;;;;;;;28.88;15.77;;;-3.30;99.90;;;;;;5027504;28;20037;-67
2024/01/10 07:59:54;;;;;;;30.17;15.93;;;-3.30;99.90;;;;;;5029284;28;20304;-67
2024/01/10 08:02:20;;;;;;;28.67;15.15;;;-3.30;99.90;;;;;;5031516;28;20473;-67
2024/01/10 08:04:45;;;;;;;28.20;15.25;;;-3.40;99.90;;;;;;5032791;28;20044;-67
2024/01/10 08:07:11;;;;;;;23.42;13.85;;;-3.30;99.90;;;;;;5028701;28;20095;-67
2024/01/10 08:09:37;;;;;;;24.05;12.70;;;-3.30;99.90;;;;;;5030553;28;20032;-66
2024/01/10 08:12:03;;;;;;;26.33;13.43;;;-3.40;99.90;;;;;;5028910;28;20179;-67
2024/01/10 08:14:29;;;;;;;25.88;14.38;;;-3.30;99.90;;;;;;5028627;28;20075;-69
2024/01/10 08:16:58;;;;;;;36.65;20.30;;;-3.40;99.90;;;;;;5028572;28;20033;-67
2024/01/10 08:19:25;;;;;;;33.33;18.15;;;-3.40;99.90;;;;;;5037195;28;20148;-69
2024/01/10 08:21:54;;;;;;;28.50;14.95;;;-3.40;99.90;;;;;;5034906;28;20044;-67
2024/01/10 08:24:20;;;;;;;27.35;14.88;;;-3.30;99.90;;;;;;5030361;28;20072;-68
2024/01/10 08:26:51;;;;;;;27.80;14.73;;;-3.30;99.90;;;;;;5026269;28;20116;-67
2024/01/10 08:29:20;;;;;;;24.65;14.82;;;-3.30;99.90;;;;;;5029295;28;20512;-67
2024/01/10 08:31:47;;;;;;;26.35;15.27;;;-3.30;99.90;;;;;;5030103;28;20033;-67
2024/01/10 08:34:12;;;;;;;25.70;14.48;;;-3.30;99.90;;;;;;5028121;28;20459;-67
2024/01/10 08:36:38;;;;;;;25.05;14.60;;;-3.30;99.90;;;;;;5028247;28;20125;-67
2024/01/10 08:39:04;;;;;;;25.30;13.98;;;-3.30;99.90;;;;;;5029994;28;20044;-69
2024/01/10 08:41:30;;;;;;;27.50;14.07;;;-3.30;99.90;;;;;;5030053;28;20397;-68
2024/01/10 08:43:56;;;;;;;28.75;14.65;;;-3.30;99.90;;;;;;5029385;28;20048;-67
2024/01/10 08:46:22;;;;;;;26.00;13.98;;;-3.30;99.90;;;;;;5029607;28;20029;-68
2024/01/10 08:48:47;;;;;;;24.75;13.40;;;-3.20;99.90;;;;;;5029035;28;20059;-68
2024/01/10 08:51:16;;;;;;;24.20;13.20;;;-3.20;99.90;;;;;;5027939;28;20038;-68
2024/01/10 08:53:42;;;;;;;23.75;12.38;;;-3.20;99.90;;;;;;5029602;28;20097;-68
2024/01/10 08:56:08;;;;;;;25.55;13.18;;;-3.20;99.90;;;;;;5026404;28;20038;-70
2024/01/10 08:58:33;;;;;;;22.55;12.63;;;-3.20;99.90;;;;;;5030548;28;20515;-68
2024/01/10 09:00:59;;;;;;;22.90;12.10;;;-3.20;99.90;;;;;;5032099;28;20124;-68
2024/01/10 09:03:24;;;;;;;23.38;12.60;;;-3.20;99.90;;;;;;5032224;28;20056;-69
2024/01/10 09:05:50;;;;;;;21.05;11.88;;;-3.10;99.90;;;;;;5032956;28;20040;-67
2024/01/10 09:08:16;;;;;;;21.50;12.23;;;-3.10;99.90;;;;;;5033459;28;20041;-67
2024/01/10 09:10:41;;;;;;;26.98;14.95;;;-2.10;99.90;;;;;;5033628;28;20056;-68
2024/01/10 09:13:07;;;;;;;26.38;13.75;;;-3.10;99.90;;;;;;5037494;28;20121;-67
2024/01/10 09:15:32;;;;;;;24.73;12.68;;;-3.10;99.90;;;;;;5033125;28;20443;-67
2024/01/10 09:17:58;;;;;;;22.42;12.05;;;-1.80;99.90;;;;;;5035033;28;20033;-67
2024/01/10 09:20:24;;;;;;;23.15;12.27;;;-3.00;99.90;;;;;;5033973;28;20038;-68
2024/01/10 09:22:50;;;;;;;22.58;12.95;;;-3.00;99.90;;;;;;5033468;28;20088;-68
2024/01/10 09:25:16;;;;;;;20.52;11.60;;;-3.00;99.90;;;;;;5037902;28;20034;-68
2024/01/10 09:27:43;;;;;;;23.52;12.88;;;-3.00;99.90;;;;;;5032739;28;20037;-68
2024/01/10 09:30:09;;;;;;;20.30;12.13;;;-3.30;99.90;;;;;;5032537;28;20052;-67
2024/01/10 09:32:35;;;;;;;22.13;12.43;;;-3.00;99.90;;;;;;5034180;28;20803;-67
2024/01/10 09:35:01;;;;;;;26.35;11.50;;;-2.90;99.90;;;;;;5028780;28;20087;-68
2024/01/10 09:37:26;;;;;;;19.48;11.45;;;-2.90;99.90;;;;;;5032305;28;20068;-67
2024/01/10 09:39:52;;;;;;;23.20;11.98;;;-2.90;99.90;;;;;;5036343;28;20091;-67
2024/01/10 09:42:19;;;;;;;20.17;10.75;;;-2.90;99.90;;;;;;5033937;28;20046;-68
2024/01/10 09:44:46;;;;;;;21.50;11.38;;;-2.90;99.90;;;;;;5030398;28;20049;-68
2024/01/10 09:47:14;;;;;;;24.48;13.25;;;-2.90;99.90;;;;;;5047197;28;20087;-69
2024/01/10 09:49:40;;;;;;;39.95;19.13;;;-2.90;99.90;;;;;;5032581;28;20045;-68
2024/01/10 09:52:10;;;;;;;73.60;31.00;;;-2.80;99.90;;;;;;5033625;28;20076;-68
2024/01/10 09:54:40;;;;;;;43.38;21.23;;;-2.80;99.90;;;;;;5032213;28;20029;-69
2024/01/10 09:57:05;;;;;;;32.38;15.73;;;-2.80;99.90;;;;;;5050624;28;20041;-68
2024/01/10 09:59:31;;;;;;;34.92;18.05;;;-2.80;99.90;;;;;;5039336;28;20094;-67
2024/01/10 10:01:58;;;;;;;25.80;15.25;;;-2.80;99.90;;;;;;5031173;28;20064;-68
2024/01/10 10:04:27;;;;;;;22.42;11.95;;;-2.80;99.90;;;;;;5031721;28;20037;-68
2024/01/10 10:07:01;;;;;;;24.40;14.90;;;-2.70;99.90;;;;;;5042374;28;20110;-68
2024/01/10 10:09:28;;;;;;;22.73;13.07;;;-2.70;99.90;;;;;;5030850;28;20087;-69
2024/01/10 10:11:59;;;;;;;22.98;11.75;;;-2.70;99.90;;;;;;5031848;28;20515;-69
2024/01/10 10:14:28;;;;;;;20.25;10.38;;;-2.60;99.90;;;;;;5032883;28;20045;-68
2024/01/10 10:16:54;;;;;;;20.50;11.73;;;-3.40;99.90;;;;;;5030870;28;20047;-67
2024/01/10 10:19:24;;;;;;;20.10;11.18;;;-2.60;99.90;;;;;;5032456;28;20112;-68
2024/01/10 10:21:50;;;;;;;19.73;10.40;;;-2.60;99.90;;;;;;5034448;28;20030;-68
2024/01/10 10:24:16;;;;;;;19.75;10.82;;;-2.60;99.90;;;;;;5030225;28;20042;-68
2024/01/10 10:26:42;;;;;;;17.52;10.57;;;-2.50;99.90;;;;;;5031543;28;20377;-68
2024/01/10 10:29:08;;;;;;;19.35;10.90;;;-2.50;99.90;;;;;;5032038;28;20037;-67
2024/01/10 10:31:35;;;;;;;20.30;11.18;;;-2.50;99.90;;;;;;5035527;28;20041;-67
2024/01/10 10:34:02;;;;;;;19.38;11.10;;;-2.50;99.90;;;;;;5031113;28;20041;-68
2024/01/10 10:36:29;;;;;;;18.63;10.65;;;-2.50;99.90;;;;;;5032178;28;20056;-68
2024/01/10 10:38:55;;;;;;;18.48;10.32;;;-2.40;99.90;;;;;;5029985;28;20056;-68
2024/01/10 10:41:21;;;;;;;19.02;11.32;;;-2.40;99.90;;;;;;5031466;28;20041;-67
2024/01/10 10:43:50;;;;;;;20.20;10.85;;;-2.40;99.90;;;;;;5031175;28;20404;-68
2024/01/10 10:46:16;;;;;;;21.85;10.82;;;-2.40;99.90;;;;;;5031382;28;20475;-68
2024/01/10 10:48:42;;;;;;;23.67;10.88;;;-2.40;99.90;;;;;;5032175;28;20033;-69
2024/01/10 10:51:17;;;;;;;22.65;11.20;;;-2.40;99.90;;;;;;5031077;28;20130;-68
2024/01/10 10:53:45;;;;;;;19.45;9.82;;;-2.30;99.90;;;;;;5024825;28;20045;-67
2024/01/10 10:56:12;;;;;;;19.23;10.45;;;-2.30;99.90;;;;;;5031166;28;20033;-68
2024/01/10 10:58:43;;;;;;;19.25;10.70;;;-2.20;99.90;;;;;;5031592;28;20041;-68
2024/01/10 11:01:11;;;;;;;21.25;11.13;;;-2.20;99.90;;;;;;5036007;28;20034;-68
2024/01/10 11:03:47;;;;;;;19.95;10.07;;;-2.20;99.90;;;;;;5027653;28;20036;-68
2024/01/10 11:06:13;;;;;;;21.70;10.80;;;-2.20;99.90;;;;;;5030300;28;20120;-67
2024/01/10 11:08:45;;;;;;;17.60;10.45;;;-2.20;99.90;;;;;;5029825;28;20057;-67
2024/01/10 11:11:35;;;;;;;23.30;10.38;;;-2.10;99.90;;;;;;5031196;28;20052;-67
2024/01/10 11:14:10;;;;;;;18.85;10.23;;;-2.10;99.90;;;;;;5030657;28;20120;-67
2024/01/10 11:17:18;;;;;;;19.83;10.25;;;-2.10;99.90;;;;;;5046738;28;20048;-67
2024/01/10 11:20:10;;;;;;;19.42;9.98;;;-2.10;99.90;;;;;;5024436;28;20404;-67
2024/01/10 11:23:09;;;;;;;20.17;9.90;;;-2.00;99.90;;;;;;5031845;28;20056;-67
2024/01/10 11:25:36;;;;;;;17.73;9.38;;;-2.00;99.90;;;;;;5037189;28;20072;-67
2024/01/10 11:28:05;;;;;;;21.83;9.48;;;-2.00;99.90;;;;;;5046621;28;20037;-67
2024/01/10 11:30:35;;;;;;;18.85;9.57;;;-1.90;99.90;;;;;;5030986;28;20053;-67
2024/01/10 11:33:17;;;;;;;20.20;9.75;;;-1.90;99.90;;;;;;5028356;28;20056;-67
2024/01/10 11:36:24;;;;;;;19.45;9.30;;;-1.90;99.90;;;;;;5043921;28;20653;-67
2024/01/10 11:38:53;;;;;;;16.73;8.68;;;-1.80;99.90;;;;;;5041744;28;20042;-67
2024/01/10 11:41:36;;;;;;;17.05;8.48;;;-1.80;99.90;;;;;;5040980;28;20041;-67
2024/01/10 11:44:22;;;;;;;;;;;-1.70;99.90;;;;;;5028565;28;20037;-67
2024/01/10 11:46:54;;;;;;;17.25;8.10;;;-1.70;99.90;;;;;;5038741;28;19917;-67
2024/01/10 11:49:21;;;;;;;16.80;8.67;;;-1.70;99.90;;;;;;5031114;28;20040;-66
2024/01/10 11:51:52;;;;;;;18.80;10.02;;;-1.60;99.90;;;;;;5030676;28;20268;-67
2024/01/10 11:54:36;;;;;;;15.80;8.43;;;-1.60;99.90;;;;;;5028705;28;20451;-67
2024/01/10 11:57:02;;;;;;;16.20;8.52;;;-1.50;99.90;;;;;;5028624;28;20045;-67
2024/01/10 11:59:30;;;;;;;14.52;7.88;;;-1.40;99.90;;;;;;5030360;28;20048;-67
2024/01/10 12:01:56;;;;;;;17.70;8.10;;;-1.30;99.90;;;;;;5029350;28;20520;-67
2024/01/10 12:04:21;;;;;;;15.25;8.02;;;-1.20;99.90;;;;;;5030473;28;20042;-67
2024/01/10 12:06:47;;;;;;;14.73;8.00;;;-1.20;99.90;;;;;;5037472;28;20116;-67
2024/01/10 12:09:14;;;;;;;16.23;8.75;;;-1.10;99.90;;;;;;5030192;28;20108;-67
2024/01/10 12:11:40;;;;;;;19.75;8.25;;;-1.00;99.90;;;;;;5029341;28;20083;-67
2024/01/10 12:14:06;;;;;;;15.00;7.75;;;-0.90;99.90;;;;;;5028806;28;20649;-67
2024/01/10 12:16:35;;;;;;;14.07;7.35;;;-0.80;99.90;;;;;;5027829;28;20120;-67
2024/01/10 12:19:01;;;;;;;14.98;8.00;;;-0.70;99.90;;;;;;5028575;28;20436;-67
2024/01/10 12:21:27;;;;;;;17.10;8.45;;;-0.60;99.90;;;;;;5029133;28;20045;-67
2024/01/10 12:23:52;;;;;;;12.73;7.10;;;-0.50;99.90;;;;;;5029510;28;20044;-67
2024/01/10 12:26:19;;;;;;;17.40;7.70;;;-0.50;99.90;;;;;;5035873;28;20043;-67